Terminal Aerodrome Forecast
Issued by NWS Omaha/Valley, NE

Home | Current Version | Previous Version | Text Only | Print | Product List | Glossary On
Versions: 1 2 3 4 5 6 7 8 9 10 11 12 13 14 15 16 17
000
FTUS43 KOAX 281411 AAA
TAFOMA
TAF AMD
KOMA 281411Z 2814/0112 VRB05KT P6SM SCT015 BKN200
      TEMPO 2814/2816 4SM BR BKN015
     FM281600 30008KT P6SM BKN015
     FM282000 34007KT 6SM BR VCSH BKN025
     FM010400 33007KT 4SM BR VCSH OVC010
     FM010600 31008KT P6SM OVC015=

USA.gov is the U.S. government's official web portal to all federal, state and local government web resources and services.